Time;durP1;ratioP1;P1;durP2;ratioP2;P2;SDS_P1;SDS_P2;PMS_P1;PMS_P2;Temp;Humidity;BMP_temperature;BMP_pressure;BME280_temperature;BME280_humidity;BME280_pressure;Samples;Min_cycle;Max_cycle;Signal;HPM_P1;HPM_P2
2024/02/02 00:02:20;;;;;;;27.90;9.00;;;;;;;;;;5027022;28;20234;-54
2024/02/02 00:04:46;;;;;;;39.07;9.97;;;;;;;;;;5021359;28;20199;-55
2024/02/02 00:07:12;;;;;;;27.73;9.63;;;;;;;;;;5029509;28;20195;-57
2024/02/02 00:09:38;;;;;;;29.43;10.17;;;;;;;;;;5027802;28;20205;-58
2024/02/02 00:12:06;;;;;;;27.60;9.63;;;;;;;;;;5037344;28;20214;-57
2024/02/02 00:14:32;;;;;;;19.93;8.60;;;;;;;;;;5028589;28;20220;-56
2024/02/02 00:16:58;;;;;;;27.77;9.00;;;;;;;;;;5032253;28;20274;-54
2024/02/02 00:19:25;;;;;;;22.37;8.60;;;;;;;;;;5024610;28;20191;-54
2024/02/02 00:21:51;;;;;;;22.67;8.37;;;;;;;;;;5034603;28;20195;-57
2024/02/02 00:24:16;;;;;;;28.03;8.50;;;;;;;;;;5033045;28;20721;-56
2024/02/02 00:26:42;;;;;;;32.83;8.77;;;;;;;;;;5013136;28;20200;-59
2024/02/02 00:29:09;;;;;;;25.23;9.00;;;;;;;;;;5032559;28;20216;-55
2024/02/02 00:31:34;;;;;;;33.07;9.87;;;;;;;;;;5040547;28;20291;-55
2024/02/02 00:34:01;;;;;;;28.07;8.97;;;;;;;;;;5024241;28;20279;-56
2024/02/02 00:36:27;;;;;;;22.23;8.70;;;;;;;;;;5047167;28;20723;-58
2024/02/02 00:38:53;;;;;;;33.13;8.80;;;;;;;;;;5031332;28;20208;-56
2024/02/02 00:41:19;;;;;;;25.97;9.07;;;;;;;;;;5012551;28;20188;-58
2024/02/02 00:43:45;;;;;;;31.57;8.67;;;;;;;;;;5029917;28;20710;-57
2024/02/02 00:46:11;;;;;;;30.60;9.20;;;;;;;;;;5018431;28;20277;-56
2024/02/02 00:48:38;;;;;;;31.67;9.40;;;;;;;;;;5028811;28;20207;-56
2024/02/02 00:51:04;;;;;;;30.30;8.67;;;;;;;;;;5024016;28;20176;-57
2024/02/02 00:53:30;;;;;;;22.90;8.80;;;;;;;;;;5031120;28;20236;-53
2024/02/02 00:55:56;;;;;;;26.53;9.17;;;;;;;;;;5026740;28;20204;-54
2024/02/02 00:58:22;;;;;;;28.17;10.03;;;;;;;;;;5031188;28;20207;-56
2024/02/02 01:00:48;;;;;;;33.17;10.43;;;;;;;;;;5039703;28;20179;-57
2024/02/02 01:03:14;;;;;;;30.23;9.73;;;;;;;;;;5046960;28;20210;-55
2024/02/02 01:05:40;;;;;;;31.30;9.87;;;;;;;;;;5022297;28;20262;-56
2024/02/02 01:08:06;;;;;;;25.07;8.40;;;;;;;;;;5051613;28;20197;-57
2024/02/02 01:10:32;;;;;;;29.83;9.07;;;;;;;;;;5042923;28;20195;-54
2024/02/02 01:12:58;;;;;;;25.77;7.93;;;;;;;;;;5039766;28;20243;-56
2024/02/02 01:15:24;;;;;;;27.10;7.97;;;;;;;;;;5031461;28;20526;-55
2024/02/02 01:17:50;;;;;;;25.80;6.97;;;;;;;;;;5021237;28;20176;-53
2024/02/02 01:20:16;;;;;;;23.90;6.13;;;;;;;;;;5017160;28;20625;-54
2024/02/02 01:22:42;;;;;;;31.43;6.50;;;;;;;;;;5047973;28;20218;-56
2024/02/02 01:25:12;;;;;;;27.63;6.77;;;;;;;;;;5023210;28;20184;-56
2024/02/02 01:27:39;;;;;;;24.87;7.30;;;;;;;;;;5031185;28;20245;-56
2024/02/02 01:30:05;;;;;;;25.50;7.40;;;;;;;;;;5039133;28;20226;-56
2024/02/02 01:32:31;;;;;;;23.17;6.70;;;;;;;;;;5031341;28;20808;-57
2024/02/02 01:34:57;;;;;;;23.13;6.80;;;;;;;;;;5031102;28;20191;-57
2024/02/02 01:37:23;;;;;;;19.93;7.10;;;;;;;;;;5039064;28;20180;-55
2024/02/02 01:39:49;;;;;;;26.07;6.43;;;;;;;;;;5031138;28;20205;-56
2024/02/02 01:42:16;;;;;;;20.60;6.30;;;;;;;;;;5025717;28;20200;-56
2024/02/02 01:44:42;;;;;;;28.30;7.20;;;;;;;;;;5010939;28;20419;-55
2024/02/02 01:47:08;;;;;;;26.33;6.53;;;;;;;;;;5050837;28;20175;-57
2024/02/02 01:49:37;;;;;;;22.67;6.83;;;;;;;;;;5035350;28;20208;-54
2024/02/02 01:52:03;;;;;;;28.17;7.57;;;;;;;;;;5031084;28;20207;-57
2024/02/02 01:54:30;;;;;;;27.20;6.20;;;;;;;;;;5032182;28;20644;-56
2024/02/02 01:56:56;;;;;;;22.10;6.50;;;;;;;;;;5045911;28;20532;-56
2024/02/02 01:59:24;;;;;;;21.70;6.07;;;;;;;;;;5039072;28;20199;-53
2024/02/02 02:01:50;;;;;;;23.53;6.40;;;;;;;;;;5037424;28;20662;-54
2024/02/02 02:04:16;;;;;;;23.60;6.43;;;;;;;;;;5029721;28;20230;-55
2024/02/02 02:06:43;;;;;;;24.83;6.70;;;;;;;;;;5040944;28;20667;-55
2024/02/02 02:09:11;;;;;;;19.53;6.83;;;;;;;;;;5034946;28;20761;-55
2024/02/02 02:11:41;;;;;;;25.33;7.40;;;;;;;;;;5025486;28;20287;-60
2024/02/02 02:14:07;;;;;;;25.97;6.90;;;;;;;;;;5038380;28;20187;-54
2024/02/02 02:16:33;;;;;;;29.40;6.70;;;;;;;;;;5030245;28;20180;-55
2024/02/02 02:19:01;;;;;;;30.27;6.83;;;;;;;;;;5035573;28;20415;-55
2024/02/02 02:21:28;;;;;;;27.70;6.93;;;;;;;;;;5025381;28;20179;-58
2024/02/02 02:23:54;;;;;;;18.70;5.53;;;;;;;;;;5038623;28;20175;-53
2024/02/02 02:26:21;;;;;;;25.87;6.23;;;;;;;;;;5038145;28;20646;-54
2024/02/02 02:28:47;;;;;;;24.90;5.70;;;;;;;;;;5037245;28;20246;-56
2024/02/02 02:31:14;;;;;;;23.53;5.97;;;;;;;;;;5023413;28;20191;-55
2024/02/02 02:33:40;;;;;;;25.80;6.23;;;;;;;;;;5012264;28;20179;-56
2024/02/02 02:36:07;;;;;;;31.10;7.47;;;;;;;;;;5034377;28;20242;-55
2024/02/02 02:38:33;;;;;;;23.47;5.67;;;;;;;;;;5034431;28;20203;-57
2024/02/02 02:40:59;;;;;;;21.60;5.93;;;;;;;;;;5041233;28;20182;-54
2024/02/02 02:43:27;;;;;;;25.00;4.77;;;;;;;;;;5035282;28;20203;-55
2024/02/02 02:45:53;;;;;;;17.43;4.60;;;;;;;;;;5037727;28;20706;-55
2024/02/02 02:48:19;;;;;;;23.40;5.40;;;;;;;;;;5027543;28;20209;-54
2024/02/02 02:50:45;;;;;;;17.60;4.87;;;;;;;;;;5032396;28;20192;-56
2024/02/02 02:53:11;;;;;;;17.90;5.00;;;;;;;;;;5017185;28;20208;-52
2024/02/02 02:55:37;;;;;;;22.17;5.17;;;;;;;;;;5016406;28;20183;-53
2024/02/02 02:58:03;;;;;;;15.00;4.00;;;;;;;;;;5021844;28;20531;-55
2024/02/02 03:00:31;;;;;;;16.73;4.60;;;;;;;;;;5029897;28;20234;-56
2024/02/02 03:02:57;;;;;;;15.23;4.27;;;;;;;;;;5029987;28;20238;-54
2024/02/02 03:05:24;;;;;;;22.97;4.97;;;;;;;;;;5029764;28;20199;-55
2024/02/02 03:07:50;;;;;;;16.53;3.97;;;;;;;;;;5027778;28;20207;-57
2024/02/02 03:10:16;;;;;;;20.00;4.17;;;;;;;;;;5005546;28;20234;-58
2024/02/02 03:12:42;;;;;;;20.93;4.40;;;;;;;;;;5037995;28;20219;-56
2024/02/02 03:15:09;;;;;;;18.83;4.20;;;;;;;;;;5029672;28;20675;-55
2024/02/02 03:17:35;;;;;;;23.30;4.53;;;;;;;;;;5037897;28;20236;-55
2024/02/02 03:20:01;;;;;;;11.40;3.53;;;;;;;;;;5012346;28;20548;-58
2024/02/02 03:22:27;;;;;;;13.70;4.20;;;;;;;;;;5036814;28;20183;-59
2024/02/02 03:24:53;;;;;;;21.70;5.33;;;;;;;;;;5037560;28;20194;-59
2024/02/02 03:27:21;;;;;;;32.53;6.23;;;;;;;;;;5015261;28;20202;-58
2024/02/02 03:29:47;;;;;;;20.87;5.70;;;;;;;;;;5039578;28;20681;-59
2024/02/02 03:32:13;;;;;;;18.73;4.87;;;;;;;;;;5045652;28;20290;-59
2024/02/02 03:34:39;;;;;;;21.70;5.97;;;;;;;;;;5033906;28;20175;-59
2024/02/02 03:37:05;;;;;;;18.97;6.23;;;;;;;;;;5038231;28;20175;-60
2024/02/02 03:39:31;;;;;;;22.83;6.70;;;;;;;;;;5054390;28;20207;-60
2024/02/02 03:41:57;;;;;;;28.37;8.37;;;;;;;;;;5037861;28;20199;-59
2024/02/02 03:44:23;;;;;;;24.17;6.83;;;;;;;;;;5041237;28;20222;-60
2024/02/02 03:46:49;;;;;;;25.67;6.87;;;;;;;;;;5043474;28;20187;-59
2024/02/02 03:49:15;;;;;;;27.87;7.07;;;;;;;;;;5032825;28;20253;-60
2024/02/02 03:51:41;;;;;;;26.40;7.03;;;;;;;;;;5050190;28;20217;-59
2024/02/02 03:54:07;;;;;;;16.13;5.97;;;;;;;;;;5029456;28;20371;-61
2024/02/02 03:56:33;;;;;;;24.80;7.07;;;;;;;;;;5044449;28;20680;-60
2024/02/02 03:58:59;;;;;;;28.50;7.67;;;;;;;;;;5047995;28;20208;-60
2024/02/02 04:01:25;;;;;;;22.20;6.20;;;;;;;;;;5022126;28;20189;-57
2024/02/02 04:03:51;;;;;;;19.17;6.37;;;;;;;;;;5038382;28;20194;-58
2024/02/02 04:06:17;;;;;;;18.63;6.00;;;;;;;;;;5040086;28;20175;-59
2024/02/02 04:08:43;;;;;;;25.07;6.30;;;;;;;;;;5053103;28;20211;-61
2024/02/02 04:11:09;;;;;;;22.17;6.90;;;;;;;;;;5049088;28;20188;-59
2024/02/02 04:13:36;;;;;;;21.37;6.63;;;;;;;;;;5033112;28;20263;-59
2024/02/02 04:16:02;;;;;;;19.90;7.00;;;;;;;;;;5033085;28;20671;-60
2024/02/02 04:18:28;;;;;;;25.13;6.37;;;;;;;;;;5026370;28;20207;-60
2024/02/02 04:20:54;;;;;;;20.97;5.80;;;;;;;;;;5023496;28;20233;-60
2024/02/02 04:23:20;;;;;;;21.00;7.10;;;;;;;;;;5025755;28;20673;-58
2024/02/02 04:25:46;;;;;;;23.67;5.83;;;;;;;;;;5033473;28;20180;-60
2024/02/02 04:28:12;;;;;;;22.43;5.90;;;;;;;;;;5030887;28;20321;-59
2024/02/02 04:30:38;;;;;;;23.27;5.70;;;;;;;;;;5041072;28;20262;-59
2024/02/02 04:33:04;;;;;;;20.83;5.63;;;;;;;;;;5024617;28;20809;-60
2024/02/02 04:35:34;;;;;;;15.27;4.93;;;;;;;;;;5025530;28;20169;-59
2024/02/02 04:38:01;;;;;;;18.10;5.33;;;;;;;;;;5051354;28;20175;-59
2024/02/02 04:40:27;;;;;;;18.63;5.07;;;;;;;;;;5037857;28;20250;-59
2024/02/02 04:42:53;;;;;;;19.43;5.60;;;;;;;;;;5032642;28;20638;-57
2024/02/02 04:45:19;;;;;;;16.10;5.33;;;;;;;;;;5045903;28;20186;-58
2024/02/02 04:47:44;;;;;;;24.73;5.57;;;;;;;;;;5043555;28;20183;-58
2024/02/02 04:50:10;;;;;;;18.40;4.93;;;;;;;;;;5044189;28;20558;-59
2024/02/02 04:52:36;;;;;;;19.13;5.57;;;;;;;;;;5028539;28;20220;-58
2024/02/02 04:55:03;;;;;;;16.17;5.37;;;;;;;;;;5027089;28;20249;-59
2024/02/02 04:57:29;;;;;;;12.63;4.73;;;;;;;;;;5043382;28;20584;-58
2024/02/02 04:59:55;;;;;;;19.87;6.07;;;;;;;;;;5052154;28;20202;-57
2024/02/02 05:02:21;;;;;;;19.23;5.20;;;;;;;;;;5030190;28;20187;-58
2024/02/02 05:04:47;;;;;;;24.70;6.73;;;;;;;;;;5031889;28;20180;-58
2024/02/02 05:07:13;;;;;;;21.10;6.37;;;;;;;;;;5031779;28;20195;-58
2024/02/02 05:09:39;;;;;;;21.40;6.63;;;;;;;;;;5032007;28;20215;-60
2024/02/02 05:12:05;;;;;;;26.77;7.30;;;;;;;;;;5011954;28;20652;-59
2024/02/02 05:14:31;;;;;;;20.20;6.60;;;;;;;;;;5026335;28;20187;-56
2024/02/02 05:16:57;;;;;;;21.80;6.60;;;;;;;;;;5030164;28;20199;-58
2024/02/02 05:19:23;;;;;;;18.43;5.77;;;;;;;;;;5034415;28;20208;-57
2024/02/02 05:21:49;;;;;;;26.57;7.40;;;;;;;;;;5033074;28;20184;-58
2024/02/02 05:24:15;;;;;;;25.63;6.20;;;;;;;;;;5047056;28;20207;-58
2024/02/02 05:26:41;;;;;;;27.83;6.03;;;;;;;;;;5038979;28;20187;-59
2024/02/02 05:29:07;;;;;;;21.47;5.70;;;;;;;;;;5035834;28;20210;-59
2024/02/02 05:31:33;;;;;;;22.40;5.80;;;;;;;;;;5020832;28;20209;-59
2024/02/02 05:33:59;;;;;;;16.07;4.70;;;;;;;;;;5041458;28;20219;-59
2024/02/02 05:36:25;;;;;;;16.40;4.13;;;;;;;;;;5038905;28;20177;-59
2024/02/02 05:38:51;;;;;;;14.13;3.90;;;;;;;;;;5020142;28;20204;-59
2024/02/02 05:41:16;;;;;;;19.23;5.73;;;;;;;;;;5029816;28;20175;-58
2024/02/02 05:43:42;;;;;;;14.63;5.17;;;;;;;;;;5042247;28;20212;-59
2024/02/02 05:46:08;;;;;;;19.43;4.83;;;;;;;;;;5014838;28;20230;-57
2024/02/02 05:48:35;;;;;;;16.00;5.63;;;;;;;;;;5038822;28;20277;-59
2024/02/02 05:51:01;;;;;;;20.10;5.27;;;;;;;;;;5045547;28;20664;-58
2024/02/02 05:53:26;;;;;;;27.20;5.80;;;;;;;;;;5026048;28;20294;-57
2024/02/02 05:55:52;;;;;;;20.10;6.37;;;;;;;;;;5029640;28;20593;-57
2024/02/02 05:58:18;;;;;;;22.40;6.03;;;;;;;;;;5039203;28;20263;-59
2024/02/02 06:00:45;;;;;;;25.80;6.27;;;;;;;;;;5031602;28;20346;-59
2024/02/02 06:03:11;;;;;;;18.93;5.77;;;;;;;;;;5043580;28;20262;-60
2024/02/02 06:05:37;;;;;;;17.77;6.47;;;;;;;;;;5050327;28;20274;-59
2024/02/02 06:08:06;;;;;;;18.80;5.50;;;;;;;;;;5019964;28;20192;-58
2024/02/02 06:10:32;;;;;;;20.10;5.83;;;;;;;;;;5026351;28;20199;-58
2024/02/02 06:12:58;;;;;;;21.67;6.17;;;;;;;;;;5022186;28;20262;-58
2024/02/02 06:15:24;;;;;;;22.60;6.53;;;;;;;;;;5036700;28;20167;-57
2024/02/02 06:17:51;;;;;;;26.67;6.97;;;;;;;;;;5024501;28;20176;-58
2024/02/02 06:20:17;;;;;;;29.67;7.90;;;;;;;;;;5043723;28;20297;-58
2024/02/02 06:22:44;;;;;;;29.20;8.00;;;;;;;;;;5033722;28;20557;-58
2024/02/02 06:25:10;;;;;;;23.87;7.60;;;;;;;;;;5026395;28;20179;-58
2024/02/02 06:27:36;;;;;;;28.57;7.93;;;;;;;;;;5042182;28;20183;-59
2024/02/02 06:30:03;;;;;;;24.77;7.40;;;;;;;;;;5025140;28;20215;-59
2024/02/02 06:32:29;;;;;;;25.77;6.93;;;;;;;;;;5035482;28;20208;-58
2024/02/02 06:34:56;;;;;;;22.77;7.00;;;;;;;;;;5048644;28;20642;-57
2024/02/02 06:37:25;;;;;;;22.57;7.03;;;;;;;;;;5033429;28;20176;-59
2024/02/02 06:39:53;;;;;;;28.17;7.93;;;;;;;;;;5031021;28;20671;-57
2024/02/02 06:42:24;;;;;;;26.20;7.67;;;;;;;;;;5023647;28;20206;-59
2024/02/02 06:44:51;;;;;;;23.27;7.30;;;;;;;;;;5031836;28;20257;-59
2024/02/02 06:47:17;;;;;;;24.10;6.40;;;;;;;;;;5049696;28;20179;-59
2024/02/02 06:49:43;;;;;;;24.27;6.00;;;;;;;;;;5049846;28;20213;-58
2024/02/02 06:52:09;;;;;;;20.97;5.70;;;;;;;;;;5038033;28;20285;-56
2024/02/02 06:54:35;;;;;;;17.33;6.00;;;;;;;;;;5030437;28;20203;-55
2024/02/02 06:57:01;;;;;;;20.20;5.37;;;;;;;;;;5029793;28;20188;-54
2024/02/02 06:59:27;;;;;;;17.20;5.23;;;;;;;;;;5030230;28;20207;-52
2024/02/02 07:01:53;;;;;;;18.67;5.37;;;;;;;;;;5030329;28;20215;-57
2024/02/02 07:04:19;;;;;;;15.40;4.83;;;;;;;;;;5030535;28;20176;-55
2024/02/02 07:06:46;;;;;;;22.43;5.37;;;;;;;;;;5037131;28;20187;-56
2024/02/02 07:09:12;;;;;;;16.90;5.63;;;;;;;;;;5018395;28;20216;-59
2024/02/02 07:11:56;;;;;;;19.43;5.73;;;;;;;;;;5042044;28;20737;-57
2024/02/02 07:14:42;;;;;;;15.60;4.93;;;;;;;;;;5029273;28;20175;-55
2024/02/02 07:17:17;;;;;;;19.73;5.33;;;;;;;;;;4999658;28;20665;-56
2024/02/02 07:19:43;;;;;;;26.77;6.13;;;;;;;;;;5036623;28;20202;-55
2024/02/02 07:22:23;;;;;;;23.50;6.80;;;;;;;;;;5028346;28;20179;-56
2024/02/02 07:24:49;;;;;;;14.53;4.73;;;;;;;;;;5034925;28;20556;-53
2024/02/02 07:27:34;;;;;;;22.53;6.10;;;;;;;;;;5028169;28;20263;-57
2024/02/02 07:30:00;;;;;;;18.60;5.33;;;;;;;;;;5017833;28;20196;-58
2024/02/02 07:32:26;;;;;;;26.37;5.20;;;;;;;;;;5005783;28;20210;-57
2024/02/02 07:34:52;;;;;;;16.37;5.00;;;;;;;;;;5020642;28;20702;-56
2024/02/02 07:37:38;;;;;;;12.77;4.20;;;;;;;;;;5028569;28;20216;-58
2024/02/02 07:40:24;;;;;;;14.67;4.17;;;;;;;;;;4998810;28;20204;-58
2024/02/02 07:42:50;;;;;;;14.97;3.97;;;;;;;;;;5027387;28;20808;-55
2024/02/02 07:45:16;;;;;;;15.40;3.90;;;;;;;;;;5043498;28;20207;-58
2024/02/02 07:47:42;;;;;;;14.50;4.10;;;;;;;;;;5028114;28;20189;-58
2024/02/02 07:50:08;;;;;;;16.73;4.30;;;;;;;;;;5028377;28;20576;-57
2024/02/02 07:52:34;;;;;;;16.83;4.07;;;;;;;;;;5035815;28;20206;-55
2024/02/02 07:55:00;;;;;;;20.97;4.60;;;;;;;;;;5021920;28;20187;-54
2024/02/02 07:57:26;;;;;;;16.50;4.30;;;;;;;;;;5025375;28;20286;-55
2024/02/02 07:59:52;;;;;;;21.87;4.50;;;;;;;;;;5021519;28;20204;-57
2024/02/02 08:02:18;;;;;;;20.90;4.30;;;;;;;;;;5021851;28;20245;-58
2024/02/02 08:04:44;;;;;;;20.37;4.60;;;;;;;;;;5031045;28;20550;-53
2024/02/02 08:07:11;;;;;;;15.67;4.50;;;;;;;;;;5032599;28;20257;-57
2024/02/02 08:09:37;;;;;;;15.63;4.40;;;;;;;;;;5016652;28;20204;-56
2024/02/02 08:12:03;;;;;;;14.73;3.93;;;;;;;;;;5038289;28;20203;-55
2024/02/02 08:14:29;;;;;;;13.43;4.33;;;;;;;;;;5033528;28;20688;-57
2024/02/02 08:16:55;;;;;;;11.33;4.50;;;;;;;;;;5038077;28;20184;-58
2024/02/02 08:19:21;;;;;;;15.50;3.63;;;;;;;;;;5049248;28;20199;-55
2024/02/02 08:21:47;;;;;;;14.57;3.40;;;;;;;;;;5043607;28;20191;-57
2024/02/02 08:24:12;;;;;;;12.63;3.87;;;;;;;;;;5035299;28;20194;-59
2024/02/02 08:26:38;;;;;;;16.37;5.50;;;;;;;;;;5043303;28;20207;-56
2024/02/02 08:29:04;;;;;;;21.70;5.07;;;;;;;;;;5017944;28;20207;-56
2024/02/02 08:31:30;;;;;;;20.53;5.77;;;;;;;;;;5031903;28;20938;-58
2024/02/02 08:33:56;;;;;;;18.97;4.87;;;;;;;;;;5027240;28;20223;-58
2024/02/02 08:36:22;;;;;;;26.10;5.70;;;;;;;;;;5031541;28;20202;-54
2024/02/02 08:38:48;;;;;;;22.07;5.53;;;;;;;;;;5024071;28;20207;-58
2024/02/02 08:41:15;;;;;;;20.33;5.53;;;;;;;;;;5038714;28;20184;-59
2024/02/02 08:43:42;;;;;;;20.10;5.33;;;2.90;99.90;;;;;;5039863;28;20294;-55
2024/02/02 08:46:09;;;;;;;18.77;5.50;;;5.10;99.90;;;;;;5031339;28;20191;-56
2024/02/02 08:48:37;;;;;;;38.90;10.23;;;;;;;;;;5032891;28;20515;-56
2024/02/02 08:51:29;;;;;;;27.67;6.87;;;6.00;99.90;;;;;;5031058;28;20263;-58
2024/02/02 08:54:18;;;;;;;20.60;5.60;;;8.80;99.90;;;;;;5039649;28;20195;-55
2024/02/02 08:57:04;;;;;;;19.30;5.50;;;10.10;99.90;;;;;;5039056;28;20671;-58
2024/02/02 08:59:35;;;;;;;17.10;5.03;;;11.10;99.90;;;;;;5034027;28;20200;-56
2024/02/02 09:02:07;;;;;;;12.83;4.90;;;12.10;99.90;;;;;;5025995;28;20188;-61
2024/02/02 09:05:09;;;;;;;18.93;5.27;;;12.50;99.90;;;;;;5044480;28;20341;-61
2024/02/02 09:07:35;;;;;;;15.97;4.90;;;12.30;99.90;;;;;;5043926;28;20577;-61
2024/02/02 09:10:16;;;;;;;21.80;4.80;;;12.30;99.90;;;;;;5045736;28;20215;-61
2024/02/02 09:12:46;;;;;;;16.77;4.20;;;12.20;99.90;;;;;;5043902;28;20195;-60
2024/02/02 09:15:18;;;;;;;20.60;4.57;;;12.00;99.90;;;;;;5045202;28;20555;-60
2024/02/02 09:17:43;;;;;;;17.77;3.67;;;11.80;99.90;;;;;;5030950;28;20190;-60
2024/02/02 09:20:21;;;;;;;14.63;3.93;;;11.80;99.90;;;;;;5035468;28;20197;-59
2024/02/02 09:22:48;;;;;;;15.67;4.30;;;11.30;99.90;;;;;;5028150;28;20256;-59
2024/02/02 09:25:22;;;;;;;13.87;4.10;;;11.00;99.90;;;;;;5018425;28;20180;-59
2024/02/02 09:27:48;;;;;;;11.67;3.57;;;10.40;99.90;;;;;;5020352;28;20286;-61
2024/02/02 09:30:21;;;;;;;15.50;4.67;;;10.00;99.90;;;;;;5037717;28;20223;-60
2024/02/02 09:32:47;;;;;;;23.93;5.13;;;10.00;99.90;;;;;;5024271;28;20742;-61
2024/02/02 09:35:36;;;;;;;12.63;4.10;;;9.90;99.90;;;;;;5034706;28;20172;-61
2024/02/02 09:38:01;;;;;;;20.43;4.10;;;10.00;99.90;;;;;;5023475;28;20226;-59
2024/02/02 09:40:45;;;;;;;12.63;3.37;;;9.90;99.90;;;;;;5030192;28;20647;-60
2024/02/02 09:43:13;;;;;;;12.60;3.90;;;10.00;99.90;;;;;;5027232;28;20671;-58
2024/02/02 09:46:05;;;;;;;13.67;3.60;;;9.60;99.90;;;;;;5027132;28;20260;-60
2024/02/02 09:49:22;;;;;;;12.63;3.27;;;9.70;99.90;;;;;;5015471;28;20741;-58
2024/02/02 09:51:53;;;;;;;14.23;3.53;;;9.70;99.90;;;;;;5049260;28;20202;-61
2024/02/02 09:54:49;;;;;;;12.97;3.17;;;9.80;99.90;;;;;;5031836;28;20673;-58
2024/02/02 09:57:28;;;;;;;12.43;2.87;;;9.90;99.90;;;;;;4983872;28;20196;-59
2024/02/02 10:00:16;;;;;;;19.43;3.60;;;9.90;99.90;;;;;;5031546;28;20286;-59
2024/02/02 10:02:47;;;;;;;9.20;3.17;;;9.90;99.90;;;;;;5026150;28;20223;-59
2024/02/02 10:05:54;;;;;;;13.63;3.03;;;9.90;99.90;;;;;;5022474;28;20265;-60
2024/02/02 10:08:28;;;;;;;10.80;2.50;;;9.90;99.90;;;;;;5027728;28;20218;-60
2024/02/02 10:11:11;;;;;;;7.67;2.53;;;10.10;99.90;;;;;;5024570;28;20663;-58
2024/02/02 10:14:21;;;;;;;10.63;3.10;;;10.10;99.90;;;;;;5024449;28;20238;-60
2024/02/02 10:17:21;;;;;;;10.57;2.47;;;10.10;99.90;;;;;;5024638;28;20172;-58
2024/02/02 10:19:46;;;;;;;11.83;2.63;;;10.10;99.90;;;;;;5025352;28;20733;-60
2024/02/02 10:22:33;;;;;;;12.47;2.80;;;10.00;99.90;;;;;;5026585;28;20191;-59
2024/02/02 10:25:16;;;;;;;12.03;2.50;;;10.00;99.90;;;;;;5018899;28;20187;-60
2024/02/02 10:28:01;;;;;;;8.97;2.80;;;10.00;99.90;;;;;;5025859;28;20235;-60
2024/02/02 10:30:42;;;;;;;13.30;1.93;;;9.90;99.90;;;;;;5021569;28;20182;-61
2024/02/02 10:33:30;;;;;;;10.10;2.43;;;9.90;99.90;;;;;;5041129;28;20293;-59
2024/02/02 10:36:14;;;;;;;11.90;2.30;;;9.90;99.90;;;;;;5032275;28;20180;-59
2024/02/02 10:39:14;;;;;;;12.10;2.37;;;9.70;99.90;;;;;;5025134;28;20601;-60
2024/02/02 10:41:59;;;;;;;9.07;2.27;;;9.50;99.90;;;;;;5029309;28;20184;-59
2024/02/02 10:44:49;;;;;;;13.27;2.13;;;9.50;99.90;;;;;;5037105;28;20650;-59
2024/02/02 10:47:29;;;;;;;10.07;2.10;;;9.50;99.90;;;;;;5013229;28;20184;-61
2024/02/02 10:50:05;;;;;;;8.33;2.00;;;9.50;99.90;;;;;;5003074;28;20574;-59
2024/02/02 10:52:33;;;;;;;16.00;2.50;;;9.50;99.90;;;;;;5037706;28;20607;-58
2024/02/02 10:55:18;;;;;;;7.47;1.73;;;9.60;99.90;;;;;;5045661;28;20179;-61
2024/02/02 10:58:03;;;;;;;10.47;1.83;;;9.60;99.90;;;;;;5036864;28;20589;-61
2024/02/02 11:00:37;;;;;;;11.40;1.70;;;9.60;99.90;;;;;;5043524;28;20209;-61
2024/02/02 11:03:11;;;;;;;10.07;2.20;;;9.60;99.90;;;;;;5046378;28;20198;-61
2024/02/02 11:06:06;;;;;;;10.23;2.53;;;9.50;99.90;;;;;;5028529;28;20183;-61
2024/02/02 11:08:36;;;;;;;13.27;2.40;;;9.50;99.90;;;;;;5030212;28;20260;-58
2024/02/02 11:11:04;;;;;;;11.57;2.50;;;9.30;99.90;;;;;;5048842;28;20229;-59
2024/02/02 11:13:44;;;;;;;9.43;2.07;;;9.30;99.90;;;;;;5047548;28;20285;-59
2024/02/02 11:16:24;;;;;;;9.13;2.20;;;9.30;99.90;;;;;;5033380;28;20184;-60
2024/02/02 11:19:12;;;;;;;10.77;2.20;;;9.40;99.90;;;;;;5025506;28;20202;-58
2024/02/02 11:22:05;;;;;;;9.83;2.17;;;9.30;99.90;;;;;;5025917;28;20255;-60
2024/02/02 11:24:56;;;;;;;9.37;1.93;;;9.20;99.90;;;;;;5038406;28;20183;-60
2024/02/02 11:27:55;;;;;;;8.83;2.23;;;9.20;99.90;;;;;;5035046;28;20629;-61
2024/02/02 11:30:30;;;;;;;20.70;2.60;;;9.20;99.90;;;;;;4995617;28;20241;-60
2024/02/02 11:33:27;;;;;;;16.70;2.60;;;9.30;99.90;;;;;;5010933;28;20211;-60
2024/02/02 11:36:14;;;;;;;9.93;2.70;;;9.30;99.90;;;;;;5038741;28;20242;-60
2024/02/02 11:38:47;;;;;;;8.20;2.90;;;9.40;99.90;;;;;;5040424;28;20191;-59
2024/02/02 11:41:22;;;;;;;12.27;2.47;;;9.40;99.90;;;;;;5040509;28;20266;-60
2024/02/02 11:43:49;;;;;;;10.80;3.00;;;9.40;99.90;;;;;;5047492;28;20198;-60
2024/02/02 11:46:17;;;;;;;13.00;2.50;;;9.50;99.90;;;;;;5025082;28;20180;-59
2024/02/02 11:48:49;;;;;;;6.20;2.77;;;9.60;99.90;;;;;;5008762;28;20204;-59
2024/02/02 11:51:15;;;;;;;10.73;2.63;;;9.60;99.90;;;;;;5033653;28;20232;-57
2024/02/02 11:54:11;;;;;;;17.57;2.80;;;9.60;99.90;;;;;;5041026;28;20223;-60
2024/02/02 11:56:42;;;;;;;15.10;2.60;;;9.60;99.90;;;;;;5032935;28;20184;-57
2024/02/02 11:59:19;;;;;;;12.77;2.90;;;9.70;99.90;;;;;;5043546;28;20202;-59
2024/02/02 12:01:57;;;;;;;18.87;2.77;;;10.00;99.90;;;;;;5027591;28;20179;-61
2024/02/02 12:04:37;;;;;;;9.43;2.20;;;10.10;99.90;;;;;;5045807;28;20186;-56
2024/02/02 12:07:33;;;;;;;10.40;2.40;;;10.30;99.90;;;;;;5016638;28;20196;-59
2024/02/02 12:10:08;;;;;;;7.67;2.50;;;10.90;99.90;;;;;;5029971;28;20265;-58
2024/02/02 12:12:36;;;;;;;8.17;1.93;;;11.40;99.90;;;;;;5026954;28;20705;-58
2024/02/02 12:15:02;;;;;;;11.20;2.73;;;11.80;99.90;;;;;;5050983;28;20262;-59
2024/02/02 12:17:29;;;;;;;10.83;2.50;;;11.80;99.90;;;;;;5043492;28;20549;-59
2024/02/02 12:19:57;;;;;;;11.97;2.30;;;11.60;99.90;;;;;;5043483;28;20202;-57
2024/02/02 12:22:23;;;;;;;8.23;2.07;;;11.30;99.90;;;;;;5035650;28;20195;-58
2024/02/02 12:24:48;;;;;;;9.30;2.77;;;11.10;99.90;;;;;;5040182;28;20180;-57
2024/02/02 12:27:15;;;;;;;8.13;2.33;;;11.00;99.90;;;;;;5019542;28;20234;-58
2024/02/02 12:29:41;;;;;;;12.20;2.90;;;10.90;99.90;;;;;;5035486;28;20210;-58
2024/02/02 12:32:10;;;;;;;11.47;2.60;;;10.80;99.90;;;;;;5035525;28;20199;-58
2024/02/02 12:34:37;;;;;;;16.00;3.10;;;10.80;99.90;;;;;;5035646;28;20203;-58
2024/02/02 12:37:04;;;;;;;7.37;2.43;;;10.80;99.90;;;;;;5032374;28;20574;-59
2024/02/02 12:39:36;;;;;;;9.53;2.53;;;10.70;99.90;;;;;;5038681;28;20275;-57
2024/02/02 12:42:03;;;;;;;17.43;3.10;;;10.80;99.90;;;;;;5020870;28;20191;-57
2024/02/02 12:44:29;;;;;;;9.50;2.50;;;10.70;99.90;;;;;;5039727;28;20211;-59
2024/02/02 12:46:55;;;;;;;6.53;2.57;;;10.70;99.90;;;;;;5049737;28;20187;-56
2024/02/02 12:49:23;;;;;;;7.77;2.40;;;10.60;99.90;;;;;;5039060;28;20207;-56
2024/02/02 12:51:49;;;;;;;9.23;2.43;;;10.50;99.90;;;;;;5024841;28;20242;-60
2024/02/02 12:54:15;;;;;;;9.10;2.10;;;10.60;99.90;;;;;;5039971;28;20179;-59
2024/02/02 12:56:41;;;;;;;17.30;2.83;;;10.50;99.90;;;;;;5040947;28;20199;-60
2024/02/02 12:59:11;;;;;;;10.27;2.27;;;10.60;99.90;;;;;;5032517;28;20675;-59
2024/02/02 13:01:36;;;;;;;8.30;2.57;;;10.70;99.90;;;;;;5032768;28;20176;-56
2024/02/02 13:04:03;;;;;;;17.00;2.80;;;10.70;99.90;;;;;;5040641;28;20188;-54
2024/02/02 13:06:30;;;;;;;10.27;2.33;;;10.90;99.90;;;;;;5044561;28;20186;-57
2024/02/02 13:09:17;;;;;;;9.03;3.50;;;10.90;99.90;;;;;;5039378;28;20321;-59
2024/02/02 13:11:43;;;;;;;11.20;2.70;;;10.80;99.90;;;;;;5031573;28;20713;-55
2024/02/02 13:14:09;;;;;;;10.40;3.00;;;10.80;99.90;;;;;;5030881;28;20195;-56
2024/02/02 13:16:35;;;;;;;10.23;1.97;;;10.70;99.90;;;;;;5038935;28;20176;-61
2024/02/02 13:19:07;;;;;;;8.23;2.03;;;10.70;99.90;;;;;;5020826;28;20569;-58
2024/02/02 13:21:42;;;;;;;8.80;2.60;;;10.80;99.90;;;;;;5027877;28;20678;-59
2024/02/02 13:24:18;;;;;;;10.17;2.23;;;11.00;99.90;;;;;;5027968;28;20363;-58
2024/02/02 13:26:43;;;;;;;10.43;2.30;;;11.00;99.90;;;;;;5043624;28;20723;-58
2024/02/02 13:29:10;;;;;;;6.77;2.27;;;11.10;99.90;;;;;;5039677;28;20200;-57
2024/02/02 13:31:36;;;;;;;13.93;2.50;;;11.20;99.90;;;;;;5031260;28;20184;-57
2024/02/02 13:34:04;;;;;;;11.13;2.63;;;11.30;99.90;;;;;;5036659;28;20663;-57
2024/02/02 13:36:30;;;;;;;10.37;2.70;;;11.40;99.90;;;;;;5027222;28;20168;-59
2024/02/02 13:38:59;;;;;;;7.83;2.53;;;11.50;99.90;;;;;;5037491;28;20200;-57
2024/02/02 13:41:26;;;;;;;5.97;1.70;;;11.70;99.90;;;;;;5029022;28;20195;-58
2024/02/02 13:44:06;;;;;;;10.37;2.47;;;11.80;99.90;;;;;;5038859;28;20194;-58
2024/02/02 13:46:32;;;;;;;13.47;2.17;;;12.00;99.90;;;;;;5038551;28;20176;-58
2024/02/02 13:49:00;;;;;;;10.87;2.13;;;12.20;99.90;;;;;;5038623;28;20699;-58
2024/02/02 13:51:27;;;;;;;7.93;2.37;;;12.30;99.90;;;;;;5027926;28;20651;-58
2024/02/02 13:53:54;;;;;;;9.40;2.13;;;12.30;99.90;;;;;;5040150;28;20188;-57
2024/02/02 13:56:27;;;;;;;8.53;2.20;;;12.50;99.90;;;;;;5027546;28;20186;-59
2024/02/02 13:58:53;;;;;;;8.87;2.60;;;12.60;99.90;;;;;;5041854;28;20785;-57
2024/02/02 14:01:20;;;;;;;5.77;2.40;;;12.60;99.90;;;;;;5050523;28;20297;-59
2024/02/02 14:03:49;;;;;;;7.27;2.47;;;12.50;99.90;;;;;;5042222;28;20571;-58